PH3 weather

CLOSED Grand Valley Airport
Ontario, Canada

Public forecast

Using degrees Celsius for public forecast. Weather courtesy of forecast.io.

METAR (pilot weather report)

Closest report is CFB Borden, 23.1 nm (42.7 km) NE. Retrieved 2019/05/21 09:00 UTC (57 minutes ago):

CYBN 210900Z AUTO 30007KT 9SM CLR 06/03 A3004 RMK SLP178

TAF (pilot weather forecast)

Closest forecast is CFB Borden, 23.1 nm (42.7 km) NE. Retrieved 2019/05/21 10:18 UTC (0 seconds ago):

TAF TAF CYBN 211016Z 2110/2122 33005KT P6SM SKC BECMG 2112/2114 33012G22KT BECMG 2117/2119 34012KT RMK FCST BASED ON AUTO OBS. NXT FCST BY 211200Z